KBMT Airport (Beaumont Muni) Information

FAA: BMT - ICAO: KBMT

KBMT Airport Location

State Texas
County Jefferson
City Beaumont
KBMT Airport is 6 miles west of Beaumont, TX.
Latitude 30-04-12.7358N
Longitude 094-12-54.3482W
Elevation 31ft

KBMT Airport METARs

METAR KBMT 161855Z AUTO 36004KT 7SM BKN008 OVC016 26/24 A2985 RMK AO2 T02550243
Altimeter 29.85"
Temperature 25.5°C (77.9°F)
Wind 360° at 4KT
Clouds broken at 800ft overcast at 1,600ft
Visibility 7.0mi
Time observed: 2021-09-16T18:55:00Z

KBMT Airport Details

Status Operational
Activation October 1937
Ownership Public
Usage Public
Chart HOUSTON
ATC on-site No
Beacon schedule sunset-sunrise
Beacon color clear green

KBMT Airport Contacts

Owner CITY OF BEAUMONT
Owner address PO BOX 3827, BEAUMONT, TX 77704
Owner phone 409-880-3725
Manager TERRY & DEBBIE MOORE
Manager address 1214 WYNDHAM HILL LANE, SOUTH LAKE, TX 76092
Manager phone 817-424-0243

KBMT Airport (Beaumont Muni) Radio Frequencies

KBMT (Airport) Radio Frequencies

UNICOM 123
Common traffic advisory frequency (CTAF) 123